PWSweather.com
Personal Weather Stations
Station Observations
SONYA
Sergiev PosadRU

Sergiev PosadRU

Lat: 56.28148651, Lon: 38.05462646

Elevation: 741

Station Type: Fine offset WH1091

High Low Average
Temperature 25.2°F-3.8°F 10.0°F-12.2°F 20.1°F-6.6°F
Dew Point 22.1°F-5.5°F 5.0°F-15.0°F 16.6°F-8.6°F
Winds 3.1 mph -5.0 mph - Calm Calm 0.1 mph 0.2 mph
Wind Gusts 4.5 mph7.2 mph -- 0.8 mph1.3 mph
Humidity 84% 71% 80%
Pressure 29.87 in1011.50 in 29.66 in1004.40 in -
Precipitation 0.00 in0.00 in - -
Hour Temp Dew Point Humidity Winds Wind Gusts Pressure Precip Precip Rate Daily Precip Total
12:00 AM 25.2°F-3.8°C 22.1°F-5.5°C 83% 0.7 mph SW1.1 kmh SW 2.2 mph3.5 kmh 29.66 in1004.4 mb 0.00 in0.0 mm 0.00 in0.0 mm 0.00 in0.0 mm
12:05 AM 25.2°F-3.8°C 22.1°F-5.5°C 83% Calm Calm 0.7 mph1.1 kmh 29.66 in1004.4 mb 0.00 in0.0 mm 0.00 in0.0 mm 0.00 in0.0 mm
12:10 AM 25.2°F-3.8°C 22.1°F-5.5°C 83% Calm Calm 1.6 mph2.6 kmh 29.67 in1004.7 mb 0.00 in0.0 mm 0.00 in0.0 mm 0.00 in0.0 mm
12:15 AM 25.0°F-3.9°C 21.9°F-5.6°C 83% Calm Calm 0.7 mph1.1 kmh 29.67 in1004.7 mb 0.00 in0.0 mm 0.00 in0.0 mm 0.00 in0.0 mm
12:20 AM 25.0°F-3.9°C 21.9°F-5.6°C 83% Calm Calm 0.7 mph1.1 kmh 29.66 in1004.4 mb 0.00 in0.0 mm 0.00 in0.0 mm 0.00 in0.0 mm
12:25 AM 25.0°F-3.9°C 21.9°F-5.6°C 83% 0.7 mph NE1.1 kmh NE 3.1 mph5.0 kmh 29.66 in1004.4 mb 0.00 in0.0 mm 0.00 in0.0 mm 0.00 in0.0 mm
12:30 AM 25.0°F-3.9°C 21.9°F-5.6°C 83% Calm Calm -- 29.67 in1004.7 mb 0.00 in0.0 mm 0.00 in0.0 mm 0.00 in0.0 mm
12:35 AM 25.0°F-3.9°C 21.9°F-5.6°C 83% Calm Calm 1.6 mph2.6 kmh 29.66 in1004.4 mb 0.00 in0.0 mm 0.00 in0.0 mm 0.00 in0.0 mm
12:40 AM 25.0°F-3.9°C 21.9°F-5.6°C 83% Calm Calm 0.7 mph1.1 kmh 29.67 in1004.7 mb 0.00 in0.0 mm 0.00 in0.0 mm 0.00 in0.0 mm
12:45 AM 25.0°F-3.9°C 21.9°F-5.6°C 83% 0.7 mph NW1.1 kmh NW 2.2 mph3.5 kmh 29.67 in1004.7 mb 0.00 in0.0 mm 0.00 in0.0 mm 0.00 in0.0 mm
12:50 AM 25.0°F-3.9°C 21.9°F-5.6°C 83% Calm Calm 0.7 mph1.1 kmh 29.67 in1004.7 mb 0.00 in0.0 mm 0.00 in0.0 mm 0.00 in0.0 mm
12:55 AM 25.0°F-3.9°C 21.9°F-5.6°C 83% 0.7 mph SW1.1 kmh SW 2.2 mph3.5 kmh 29.67 in1004.7 mb 0.00 in0.0 mm 0.00 in0.0 mm 0.00 in0.0 mm
01:00 AM 25.0°F-3.9°C 21.9°F-5.6°C 83% Calm Calm 1.6 mph2.6 kmh 29.67 in1004.7 mb 0.00 in0.0 mm 0.00 in0.0 mm 0.00 in0.0 mm
01:05 AM 25.0°F-3.9°C 21.9°F-5.6°C 83% Calm Calm 1.6 mph2.6 kmh 29.67 in1004.7 mb 0.00 in0.0 mm 0.00 in0.0 mm 0.00 in0.0 mm
01:10 AM 25.0°F-3.9°C 21.9°F-5.6°C 83% 0.7 mph SW1.1 kmh SW 3.8 mph6.1 kmh 29.67 in1004.7 mb 0.00 in0.0 mm 0.00 in0.0 mm 0.00 in0.0 mm
01:15 AM 25.0°F-3.9°C 21.9°F-5.6°C 83% Calm Calm -- 29.67 in1004.7 mb 0.00 in0.0 mm 0.00 in0.0 mm 0.00 in0.0 mm
01:20 AM 25.0°F-3.9°C 21.9°F-5.6°C 83% 0.7 mph NW1.1 kmh NW 4.5 mph7.2 kmh 29.67 in1004.7 mb 0.00 in0.0 mm 0.00 in0.0 mm 0.00 in0.0 mm
01:25 AM 24.8°F-4.0°C 21.7°F-5.7°C 83% Calm Calm 0.7 mph1.1 kmh 29.67 in1004.7 mb 0.00 in0.0 mm 0.00 in0.0 mm 0.00 in0.0 mm
01:30 AM 24.8°F-4.0°C 21.7°F-5.7°C 83% 0.7 mph NW1.1 kmh NW 3.1 mph5.0 kmh 29.68 in1005.1 mb 0.00 in0.0 mm 0.00 in0.0 mm 0.00 in0.0 mm
01:35 AM 24.8°F-4.0°C 21.7°F-5.7°C 83% Calm Calm 0.7 mph1.1 kmh 29.68 in1005.1 mb 0.00 in0.0 mm 0.00 in0.0 mm 0.00 in0.0 mm
01:40 AM 24.8°F-4.0°C 21.7°F-5.7°C 83% Calm Calm 0.7 mph1.1 kmh 29.68 in1005.1 mb 0.00 in0.0 mm 0.00 in0.0 mm 0.00 in0.0 mm
01:45 AM 24.8°F-4.0°C 21.7°F-5.7°C 83% 0.7 mph 1.1 kmh 3.1 mph5.0 kmh 29.68 in1005.1 mb 0.00 in0.0 mm 0.00 in0.0 mm 0.00 in0.0 mm
01:50 AM 24.8°F-4.0°C 21.7°F-5.7°C 83% Calm Calm 1.6 mph2.6 kmh 29.68 in1005.1 mb 0.00 in0.0 mm 0.00 in0.0 mm 0.00 in0.0 mm
01:55 AM 24.8°F-4.0°C 21.7°F-5.7°C 83% Calm Calm 1.6 mph2.6 kmh 29.68 in1005.1 mb 0.00 in0.0 mm 0.00 in0.0 mm 0.00 in0.0 mm
02:00 AM 24.8°F-4.0°C 21.7°F-5.7°C 83% Calm Calm 0.7 mph1.1 kmh 29.68 in1005.1 mb 0.00 in0.0 mm 0.00 in0.0 mm 0.00 in0.0 mm
02:05 AM 24.8°F-4.0°C 21.7°F-5.7°C 83% Calm Calm 1.6 mph2.6 kmh 29.69 in1005.4 mb 0.00 in0.0 mm 0.00 in0.0 mm 0.00 in0.0 mm
02:10 AM 24.8°F-4.0°C 21.7°F-5.7°C 83% Calm Calm -- 29.68 in1005.1 mb 0.00 in0.0 mm 0.00 in0.0 mm 0.00 in0.0 mm
02:15 AM 24.8°F-4.0°C 21.7°F-5.7°C 83% Calm Calm -- 29.68 in1005.1 mb 0.00 in0.0 mm 0.00 in0.0 mm 0.00 in0.0 mm
02:20 AM 24.8°F-4.0°C 21.7°F-5.7°C 83% Calm Calm 1.6 mph2.6 kmh 29.68 in1005.1 mb 0.00 in0.0 mm 0.00 in0.0 mm 0.00 in0.0 mm
02:25 AM 24.8°F-4.0°C 21.7°F-5.7°C 83% Calm Calm 1.6 mph2.6 kmh 29.68 in1005.1 mb 0.00 in0.0 mm 0.00 in0.0 mm 0.00 in0.0 mm
02:30 AM 24.8°F-4.0°C 21.7°F-5.7°C 83% Calm Calm 1.6 mph2.6 kmh 29.68 in1005.1 mb 0.00 in0.0 mm 0.00 in0.0 mm 0.00 in0.0 mm
02:35 AM 24.6°F-4.1°C 21.7°F-5.7°C 84% Calm Calm 1.6 mph2.6 kmh 29.69 in1005.4 mb 0.00 in0.0 mm 0.00 in0.0 mm 0.00 in0.0 mm
02:40 AM 24.6°F-4.1°C 21.7°F-5.7°C 84% Calm Calm 0.7 mph1.1 kmh 29.69 in1005.4 mb 0.00 in0.0 mm 0.00 in0.0 mm 0.00 in0.0 mm
02:45 AM 24.6°F-4.1°C 21.7°F-5.7°C 84% Calm Calm 2.2 mph3.5 kmh 29.69 in1005.4 mb 0.00 in0.0 mm 0.00 in0.0 mm 0.00 in0.0 mm
02:50 AM 24.6°F-4.1°C 21.7°F-5.7°C 84% Calm Calm 2.2 mph3.5 kmh 29.69 in1005.4 mb 0.00 in0.0 mm 0.00 in0.0 mm 0.00 in0.0 mm
02:55 AM 24.6°F-4.1°C 21.7°F-5.7°C 84% Calm Calm 0.7 mph1.1 kmh 29.69 in1005.4 mb 0.00 in0.0 mm 0.00 in0.0 mm 0.00 in0.0 mm
03:00 AM 24.4°F-4.2°C 21.6°F-5.8°C 84% Calm Calm 1.6 mph2.6 kmh 29.69 in1005.4 mb 0.00 in0.0 mm 0.00 in0.0 mm 0.00 in0.0 mm
03:05 AM 24.4°F-4.2°C 21.6°F-5.8°C 84% Calm Calm 0.7 mph1.1 kmh 29.69 in1005.4 mb 0.00 in0.0 mm 0.00 in0.0 mm 0.00 in0.0 mm
03:10 AM 24.4°F-4.2°C 21.6°F-5.8°C 84% Calm Calm 1.6 mph2.6 kmh 29.70 in1005.8 mb 0.00 in0.0 mm 0.00 in0.0 mm 0.00 in0.0 mm
03:15 AM 24.4°F-4.2°C 21.6°F-5.8°C 84% Calm Calm 0.7 mph1.1 kmh 29.69 in1005.4 mb 0.00 in0.0 mm 0.00 in0.0 mm 0.00 in0.0 mm
03:20 AM 24.4°F-4.2°C 21.6°F-5.8°C 84% Calm Calm 0.7 mph1.1 kmh 29.69 in1005.4 mb 0.00 in0.0 mm 0.00 in0.0 mm 0.00 in0.0 mm
03:25 AM 24.4°F-4.2°C 21.6°F-5.8°C 84% 0.7 mph 1.1 kmh 2.2 mph3.5 kmh 29.69 in1005.4 mb 0.00 in0.0 mm 0.00 in0.0 mm 0.00 in0.0 mm
03:30 AM 24.3°F-4.3°C 21.4°F-5.9°C 84% Calm Calm -- 29.69 in1005.4 mb 0.00 in0.0 mm 0.00 in0.0 mm 0.00 in0.0 mm
03:35 AM 24.3°F-4.3°C 21.4°F-5.9°C 84% Calm Calm 3.1 mph5.0 kmh 29.69 in1005.4 mb 0.00 in0.0 mm 0.00 in0.0 mm 0.00 in0.0 mm
03:40 AM 24.3°F-4.3°C 21.2°F-6.0°C 83% 1.6 mph ENE2.6 kmh ENE 3.8 mph6.1 kmh 29.69 in1005.4 mb 0.00 in0.0 mm 0.00 in0.0 mm 0.00 in0.0 mm
03:45 AM 24.3°F-4.3°C 21.2°F-6.0°C 83% Calm Calm 2.2 mph3.5 kmh 29.69 in1005.4 mb 0.00 in0.0 mm 0.00 in0.0 mm 0.00 in0.0 mm
03:50 AM 24.3°F-4.3°C 21.2°F-6.0°C 83% Calm Calm 1.6 mph2.6 kmh 29.69 in1005.4 mb 0.00 in0.0 mm 0.00 in0.0 mm 0.00 in0.0 mm
03:55 AM 24.3°F-4.3°C 21.2°F-6.0°C 83% Calm Calm 0.7 mph1.1 kmh 29.69 in1005.4 mb 0.00 in0.0 mm 0.00 in0.0 mm 0.00 in0.0 mm
04:00 AM 24.1°F-4.4°C 21.0°F-6.1°C 83% Calm Calm -- 29.69 in1005.4 mb 0.00 in0.0 mm 0.00 in0.0 mm 0.00 in0.0 mm
04:05 AM 24.1°F-4.4°C 21.0°F-6.1°C 83% Calm Calm -- 29.69 in1005.4 mb 0.00 in0.0 mm 0.00 in0.0 mm 0.00 in0.0 mm
04:10 AM 24.1°F-4.4°C 21.0°F-6.1°C 83% Calm Calm 0.7 mph1.1 kmh 29.69 in1005.4 mb 0.00 in0.0 mm 0.00 in0.0 mm 0.00 in0.0 mm
04:15 AM 24.3°F-4.3°C 21.2°F-6.0°C 83% 3.1 mph NE5.0 kmh NE 4.5 mph7.2 kmh 29.69 in1005.4 mb 0.00 in0.0 mm 0.00 in0.0 mm 0.00 in0.0 mm
04:20 AM 24.1°F-4.4°C 21.0°F-6.1°C 83% Calm Calm 1.6 mph2.6 kmh 29.69 in1005.4 mb 0.00 in0.0 mm 0.00 in0.0 mm 0.00 in0.0 mm
04:25 AM 24.1°F-4.4°C 21.0°F-6.1°C 83% Calm Calm -- 29.69 in1005.4 mb 0.00 in0.0 mm 0.00 in0.0 mm 0.00 in0.0 mm
04:30 AM 24.1°F-4.4°C 21.0°F-6.1°C 83% 0.7 mph W1.1 kmh W 1.6 mph2.6 kmh 29.69 in1005.4 mb 0.00 in0.0 mm 0.00 in0.0 mm 0.00 in0.0 mm
04:35 AM 24.1°F-4.4°C 21.0°F-6.1°C 83% Calm Calm 0.7 mph1.1 kmh 29.70 in1005.8 mb 0.00 in0.0 mm 0.00 in0.0 mm 0.00 in0.0 mm
04:40 AM 24.1°F-4.4°C 21.0°F-6.1°C 83% Calm Calm -- 29.69 in1005.4 mb 0.00 in0.0 mm 0.00 in0.0 mm 0.00 in0.0 mm
04:45 AM 24.1°F-4.4°C 21.0°F-6.1°C 83% Calm Calm -- 29.69 in1005.4 mb 0.00 in0.0 mm 0.00 in0.0 mm 0.00 in0.0 mm
04:50 AM 24.1°F-4.4°C 21.0°F-6.1°C 83% Calm Calm -- 29.69 in1005.4 mb 0.00 in0.0 mm 0.00 in0.0 mm 0.00 in0.0 mm
04:55 AM 24.1°F-4.4°C 21.0°F-6.1°C 83% Calm Calm -- 29.70 in1005.8 mb 0.00 in0.0 mm 0.00 in0.0 mm 0.00 in0.0 mm
05:00 AM 24.1°F-4.4°C 21.0°F-6.1°C 83% Calm Calm 1.6 mph2.6 kmh 29.70 in1005.8 mb 0.00 in0.0 mm 0.00 in0.0 mm 0.00 in0.0 mm
05:05 AM 24.1°F-4.4°C 21.0°F-6.1°C 83% Calm Calm -- 29.70 in1005.8 mb 0.00 in0.0 mm 0.00 in0.0 mm 0.00 in0.0 mm
05:10 AM 24.1°F-4.4°C 21.0°F-6.1°C 83% Calm Calm -- 29.70 in1005.8 mb 0.00 in0.0 mm 0.00 in0.0 mm 0.00 in0.0 mm
05:15 AM 24.1°F-4.4°C 21.0°F-6.1°C 83% Calm Calm -- 29.70 in1005.8 mb 0.00 in0.0 mm 0.00 in0.0 mm 0.00 in0.0 mm
05:20 AM 24.1°F-4.4°C 21.0°F-6.1°C 83% 0.7 mph NW1.1 kmh NW 1.6 mph2.6 kmh 29.70 in1005.8 mb 0.00 in0.0 mm 0.00 in0.0 mm 0.00 in0.0 mm
05:25 AM 24.1°F-4.4°C 21.0°F-6.1°C 83% Calm Calm 1.6 mph2.6 kmh 29.70 in1005.8 mb 0.00 in0.0 mm 0.00 in0.0 mm 0.00 in0.0 mm
05:30 AM 24.1°F-4.4°C 21.0°F-6.1°C 83% Calm Calm -- 29.70 in1005.8 mb 0.00 in0.0 mm 0.00 in0.0 mm 0.00 in0.0 mm
05:35 AM 24.1°F-4.4°C 21.0°F-6.1°C 83% Calm Calm 0.7 mph1.1 kmh 29.70 in1005.8 mb 0.00 in0.0 mm 0.00 in0.0 mm 0.00 in0.0 mm
05:40 AM 23.9°F-4.5°C 20.8°F-6.2°C 83% Calm Calm -- 29.70 in1005.8 mb 0.00 in0.0 mm 0.00 in0.0 mm 0.00 in0.0 mm
05:45 AM 23.9°F-4.5°C 20.8°F-6.2°C 83% 0.7 mph W1.1 kmh W 2.2 mph3.5 kmh 29.70 in1005.8 mb 0.00 in0.0 mm 0.00 in0.0 mm 0.00 in0.0 mm
05:50 AM 23.9°F-4.5°C 20.8°F-6.2°C 83% Calm Calm -- 29.70 in1005.8 mb 0.00 in0.0 mm 0.00 in0.0 mm 0.00 in0.0 mm
05:55 AM 23.9°F-4.5°C 20.8°F-6.2°C 83% Calm Calm 0.7 mph1.1 kmh 29.70 in1005.8 mb 0.00 in0.0 mm 0.00 in0.0 mm 0.00 in0.0 mm
06:00 AM 23.9°F-4.5°C 20.8°F-6.2°C 83% Calm Calm 0.7 mph1.1 kmh 29.70 in1005.8 mb 0.00 in0.0 mm 0.00 in0.0 mm 0.00 in0.0 mm
06:05 AM 23.9°F-4.5°C 20.8°F-6.2°C 83% Calm Calm -- 29.70 in1005.8 mb 0.00 in0.0 mm 0.00 in0.0 mm 0.00 in0.0 mm
06:10 AM 23.9°F-4.5°C 20.8°F-6.2°C 83% Calm Calm -- 29.70 in1005.8 mb 0.00 in0.0 mm 0.00 in0.0 mm 0.00 in0.0 mm
06:15 AM 23.9°F-4.5°C 20.8°F-6.2°C 83% Calm Calm 0.7 mph1.1 kmh 29.71 in1006.1 mb 0.00 in0.0 mm 0.00 in0.0 mm 0.00 in0.0 mm
06:20 AM 23.9°F-4.5°C 20.8°F-6.2°C 83% Calm Calm 0.7 mph1.1 kmh 29.70 in1005.8 mb 0.00 in0.0 mm 0.00 in0.0 mm 0.00 in0.0 mm
06:25 AM 23.9°F-4.5°C 20.8°F-6.2°C 83% Calm Calm 0.7 mph1.1 kmh 29.71 in1006.1 mb 0.00 in0.0 mm 0.00 in0.0 mm 0.00 in0.0 mm
06:30 AM 23.9°F-4.5°C 20.8°F-6.2°C 83% Calm Calm 1.6 mph2.6 kmh 29.70 in1005.8 mb 0.00 in0.0 mm 0.00 in0.0 mm 0.00 in0.0 mm
06:35 AM 23.9°F-4.5°C 20.8°F-6.2°C 83% Calm Calm 0.7 mph1.1 kmh 29.70 in1005.8 mb 0.00 in0.0 mm 0.00 in0.0 mm 0.00 in0.0 mm
06:40 AM 23.9°F-4.5°C 20.8°F-6.2°C 83% Calm Calm 1.6 mph2.6 kmh 29.70 in1005.8 mb 0.00 in0.0 mm 0.00 in0.0 mm 0.00 in0.0 mm
06:45 AM 23.9°F-4.5°C 20.8°F-6.2°C 83% Calm Calm -- 29.70 in1005.8 mb 0.00 in0.0 mm 0.00 in0.0 mm 0.00 in0.0 mm
06:50 AM 23.9°F-4.5°C 20.8°F-6.2°C 83% Calm Calm -- 29.70 in1005.8 mb 0.00 in0.0 mm 0.00 in0.0 mm 0.00 in0.0 mm
06:55 AM 23.7°F-4.6°C 20.7°F-6.3°C 83% Calm Calm -- 29.70 in1005.8 mb 0.00 in0.0 mm 0.00 in0.0 mm 0.00 in0.0 mm
07:00 AM 23.7°F-4.6°C 20.7°F-6.3°C 83% Calm Calm -- 29.70 in1005.8 mb 0.00 in0.0 mm 0.00 in0.0 mm 0.00 in0.0 mm
07:05 AM 23.7°F-4.6°C 20.7°F-6.3°C 83% Calm Calm 1.6 mph2.6 kmh 29.70 in1005.8 mb 0.00 in0.0 mm 0.00 in0.0 mm 0.00 in0.0 mm
07:10 AM 23.7°F-4.6°C 20.7°F-6.3°C 83% Calm Calm 0.7 mph1.1 kmh 29.70 in1005.8 mb 0.00 in0.0 mm 0.00 in0.0 mm 0.00 in0.0 mm
07:15 AM 23.7°F-4.6°C 20.7°F-6.3°C 83% Calm Calm 0.7 mph1.1 kmh 29.70 in1005.8 mb 0.00 in0.0 mm 0.00 in0.0 mm 0.00 in0.0 mm
07:20 AM 23.7°F-4.6°C 20.7°F-6.3°C 83% Calm Calm -- 29.70 in1005.8 mb 0.00 in0.0 mm 0.00 in0.0 mm 0.00 in0.0 mm
07:25 AM 23.7°F-4.6°C 20.7°F-6.3°C 83% Calm Calm -- 29.70 in1005.8 mb 0.00 in0.0 mm 0.00 in0.0 mm 0.00 in0.0 mm
07:30 AM 23.7°F-4.6°C 20.7°F-6.3°C 83% Calm Calm 0.7 mph1.1 kmh 29.70 in1005.8 mb 0.00 in0.0 mm 0.00 in0.0 mm 0.00 in0.0 mm
07:35 AM 23.7°F-4.6°C 20.7°F-6.3°C 83% Calm Calm -- 29.70 in1005.8 mb 0.00 in0.0 mm 0.00 in0.0 mm 0.00 in0.0 mm
07:40 AM 23.7°F-4.6°C 20.7°F-6.3°C 83% Calm Calm 0.7 mph1.1 kmh 29.70 in1005.8 mb 0.00 in0.0 mm 0.00 in0.0 mm 0.00 in0.0 mm
07:45 AM 23.7°F-4.6°C 20.7°F-6.3°C 83% Calm Calm 0.7 mph1.1 kmh 29.71 in1006.1 mb 0.00 in0.0 mm 0.00 in0.0 mm 0.00 in0.0 mm
07:50 AM 23.7°F-4.6°C 20.7°F-6.3°C 83% Calm Calm -- 29.71 in1006.1 mb 0.00 in0.0 mm 0.00 in0.0 mm 0.00 in0.0 mm
07:55 AM 23.7°F-4.6°C 20.7°F-6.3°C 83% Calm Calm 0.7 mph1.1 kmh 29.71 in1006.1 mb 0.00 in0.0 mm 0.00 in0.0 mm 0.00 in0.0 mm
08:00 AM 23.7°F-4.6°C 20.7°F-6.3°C 83% Calm Calm 0.7 mph1.1 kmh 29.71 in1006.1 mb 0.00 in0.0 mm 0.00 in0.0 mm 0.00 in0.0 mm
08:05 AM 23.5°F-4.7°C 20.5°F-6.4°C 83% Calm Calm -- 29.71 in1006.1 mb 0.00 in0.0 mm 0.00 in0.0 mm 0.00 in0.0 mm
08:10 AM 23.5°F-4.7°C 20.5°F-6.4°C 83% Calm Calm -- 29.71 in1006.1 mb 0.00 in0.0 mm 0.00 in0.0 mm 0.00 in0.0 mm
08:15 AM 23.5°F-4.7°C 20.5°F-6.4°C 83% Calm Calm 0.7 mph1.1 kmh 29.70 in1005.8 mb 0.00 in0.0 mm 0.00 in0.0 mm 0.00 in0.0 mm
08:20 AM 23.5°F-4.7°C 20.5°F-6.4°C 83% 0.7 mph S1.1 kmh S 4.5 mph7.2 kmh 29.71 in1006.1 mb 0.00 in0.0 mm 0.00 in0.0 mm 0.00 in0.0 mm
08:25 AM 23.4°F-4.8°C 20.3°F-6.5°C 83% Calm Calm 1.6 mph2.6 kmh 29.71 in1006.1 mb 0.00 in0.0 mm 0.00 in0.0 mm 0.00 in0.0 mm
08:30 AM 23.4°F-4.8°C 20.3°F-6.5°C 83% Calm Calm 1.6 mph2.6 kmh 29.70 in1005.8 mb 0.00 in0.0 mm 0.00 in0.0 mm 0.00 in0.0 mm
08:35 AM 23.4°F-4.8°C 20.3°F-6.5°C 83% Calm Calm -- 29.71 in1006.1 mb 0.00 in0.0 mm 0.00 in0.0 mm 0.00 in0.0 mm
08:40 AM 23.4°F-4.8°C 20.3°F-6.5°C 83% Calm Calm 1.6 mph2.6 kmh 29.71 in1006.1 mb 0.00 in0.0 mm 0.00 in0.0 mm 0.00 in0.0 mm
08:45 AM 23.2°F-4.9°C 20.1°F-6.6°C 83% Calm Calm -- 29.72 in1006.4 mb 0.00 in0.0 mm 0.00 in0.0 mm 0.00 in0.0 mm
08:50 AM 23.4°F-4.8°C 20.3°F-6.5°C 83% Calm Calm 1.6 mph2.6 kmh 29.72 in1006.4 mb 0.00 in0.0 mm 0.00 in0.0 mm 0.00 in0.0 mm
08:55 AM 23.2°F-4.9°C 20.1°F-6.6°C 83% Calm Calm -- 29.72 in1006.4 mb 0.00 in0.0 mm 0.00 in0.0 mm 0.00 in0.0 mm
09:00 AM 23.2°F-4.9°C 20.1°F-6.6°C 83% Calm Calm 0.7 mph1.1 kmh 29.72 in1006.4 mb 0.00 in0.0 mm 0.00 in0.0 mm 0.00 in0.0 mm
09:05 AM 23.2°F-4.9°C 20.1°F-6.6°C 83% Calm Calm 0.7 mph1.1 kmh 29.72 in1006.4 mb 0.00 in0.0 mm 0.00 in0.0 mm 0.00 in0.0 mm
09:10 AM 23.2°F-4.9°C 20.1°F-6.6°C 83% 0.7 mph NW1.1 kmh NW 2.2 mph3.5 kmh 29.72 in1006.4 mb 0.00 in0.0 mm 0.00 in0.0 mm 0.00 in0.0 mm
09:15 AM 23.2°F-4.9°C 20.1°F-6.6°C 83% Calm Calm 0.7 mph1.1 kmh 29.72 in1006.4 mb 0.00 in0.0 mm 0.00 in0.0 mm 0.00 in0.0 mm
09:20 AM 23.2°F-4.9°C 20.1°F-6.6°C 83% Calm Calm 2.2 mph3.5 kmh 29.72 in1006.4 mb 0.00 in0.0 mm 0.00 in0.0 mm 0.00 in0.0 mm
09:25 AM 23.0°F-5.0°C 20.0°F-6.7°C 83% 0.7 mph SW1.1 kmh SW 3.8 mph6.1 kmh 29.72 in1006.4 mb 0.00 in0.0 mm 0.00 in0.0 mm 0.00 in0.0 mm
09:30 AM 23.0°F-5.0°C 20.0°F-6.7°C 83% Calm Calm -- 29.72 in1006.4 mb 0.00 in0.0 mm 0.00 in0.0 mm 0.00 in0.0 mm
09:35 AM 23.2°F-4.9°C 20.1°F-6.6°C 83% Calm Calm 0.7 mph1.1 kmh 29.72 in1006.4 mb 0.00 in0.0 mm 0.00 in0.0 mm 0.00 in0.0 mm
09:40 AM 23.2°F-4.9°C 20.1°F-6.6°C 83% 1.6 mph NW2.6 kmh NW 3.1 mph5.0 kmh 29.73 in1006.8 mb 0.00 in0.0 mm 0.00 in0.0 mm 0.00 in0.0 mm
09:45 AM 23.0°F-5.0°C 20.0°F-6.7°C 83% Calm Calm 0.7 mph1.1 kmh 29.73 in1006.8 mb 0.00 in0.0 mm 0.00 in0.0 mm 0.00 in0.0 mm
09:50 AM 23.0°F-5.0°C 20.0°F-6.7°C 83% Calm Calm 0.7 mph1.1 kmh 29.73 in1006.8 mb 0.00 in0.0 mm 0.00 in0.0 mm 0.00 in0.0 mm
09:55 AM 23.0°F-5.0°C 20.0°F-6.7°C 83% Calm Calm 0.7 mph1.1 kmh 29.73 in1006.8 mb 0.00 in0.0 mm 0.00 in0.0 mm 0.00 in0.0 mm
10:00 AM 23.0°F-5.0°C 20.0°F-6.7°C 83% Calm Calm -- 29.74 in1007.1 mb 0.00 in0.0 mm 0.00 in0.0 mm 0.00 in0.0 mm
10:05 AM 23.2°F-4.9°C 20.1°F-6.6°C 83% Calm Calm -- 29.73 in1006.8 mb 0.00 in0.0 mm 0.00 in0.0 mm 0.00 in0.0 mm
10:10 AM 23.2°F-4.9°C 20.1°F-6.6°C 83% Calm Calm 1.6 mph2.6 kmh 29.74 in1007.1 mb 0.00 in0.0 mm 0.00 in0.0 mm 0.00 in0.0 mm
10:15 AM 23.2°F-4.9°C 19.9°F-6.7°C 82% Calm Calm 0.7 mph1.1 kmh 29.74 in1007.1 mb 0.00 in0.0 mm 0.00 in0.0 mm 0.00 in0.0 mm
10:20 AM 23.2°F-4.9°C 19.9°F-6.7°C 82% Calm Calm -- 29.74 in1007.1 mb 0.00 in0.0 mm 0.00 in0.0 mm 0.00 in0.0 mm
10:25 AM 23.2°F-4.9°C 19.9°F-6.7°C 82% Calm Calm 0.7 mph1.1 kmh 29.74 in1007.1 mb 0.00 in0.0 mm 0.00 in0.0 mm 0.00 in0.0 mm
10:30 AM 23.2°F-4.9°C 19.9°F-6.7°C 82% Calm Calm 0.7 mph1.1 kmh 29.74 in1007.1 mb 0.00 in0.0 mm 0.00 in0.0 mm 0.00 in0.0 mm
10:35 AM 23.2°F-4.9°C 19.9°F-6.7°C 82% Calm Calm -- 29.74 in1007.1 mb 0.00 in0.0 mm 0.00 in0.0 mm 0.00 in0.0 mm
10:40 AM 23.2°F-4.9°C 19.9°F-6.7°C 82% Calm Calm 0.7 mph1.1 kmh 29.74 in1007.1 mb 0.00 in0.0 mm 0.00 in0.0 mm 0.00 in0.0 mm
10:45 AM 23.2°F-4.9°C 19.9°F-6.7°C 82% Calm Calm -- 29.74 in1007.1 mb 0.00 in0.0 mm 0.00 in0.0 mm 0.00 in0.0 mm
10:50 AM 23.2°F-4.9°C 19.9°F-6.7°C 82% Calm Calm -- 29.74 in1007.1 mb 0.00 in0.0 mm 0.00 in0.0 mm 0.00 in0.0 mm
10:55 AM 23.2°F-4.9°C 19.9°F-6.7°C 82% 0.7 mph W1.1 kmh W 1.6 mph2.6 kmh 29.75 in1007.5 mb 0.00 in0.0 mm 0.00 in0.0 mm 0.00 in0.0 mm
11:00 AM 23.2°F-4.9°C 19.9°F-6.7°C 82% 0.7 mph SE1.1 kmh SE 2.2 mph3.5 kmh 29.75 in1007.5 mb 0.00 in0.0 mm 0.00 in0.0 mm 0.00 in0.0 mm
11:05 AM 23.2°F-4.9°C 19.9°F-6.7°C 82% Calm Calm -- 29.75 in1007.5 mb 0.00 in0.0 mm 0.00 in0.0 mm 0.00 in0.0 mm
11:10 AM 23.4°F-4.8°C 20.1°F-6.6°C 82% Calm Calm -- 29.75 in1007.5 mb 0.00 in0.0 mm 0.00 in0.0 mm 0.00 in0.0 mm
11:15 AM 23.4°F-4.8°C 20.1°F-6.6°C 82% Calm Calm -- 29.75 in1007.5 mb 0.00 in0.0 mm 0.00 in0.0 mm 0.00 in0.0 mm
11:20 AM 23.4°F-4.8°C 20.1°F-6.6°C 82% Calm Calm 0.7 mph1.1 kmh 29.75 in1007.5 mb 0.00 in0.0 mm 0.00 in0.0 mm 0.00 in0.0 mm
11:25 AM 23.4°F-4.8°C 20.1°F-6.6°C 82% Calm Calm 0.7 mph1.1 kmh 29.76 in1007.8 mb 0.00 in0.0 mm 0.00 in0.0 mm 0.00 in0.0 mm
11:30 AM 23.5°F-4.7°C 20.3°F-6.5°C 82% Calm Calm 0.7 mph1.1 kmh 29.75 in1007.5 mb 0.00 in0.0 mm 0.00 in0.0 mm 0.00 in0.0 mm
11:35 AM 23.5°F-4.7°C 20.3°F-6.5°C 82% Calm Calm -- 29.75 in1007.5 mb 0.00 in0.0 mm 0.00 in0.0 mm 0.00 in0.0 mm
11:40 AM 23.4°F-4.8°C 20.1°F-6.6°C 82% Calm Calm 0.7 mph1.1 kmh 29.76 in1007.8 mb 0.00 in0.0 mm 0.00 in0.0 mm 0.00 in0.0 mm
11:45 AM 23.0°F-5.0°C 19.8°F-6.8°C 82% 0.7 mph 1.1 kmh 3.1 mph5.0 kmh 29.75 in1007.5 mb 0.00 in0.0 mm 0.00 in0.0 mm 0.00 in0.0 mm
11:50 AM 22.8°F-5.1°C 19.6°F-6.9°C 82% 0.7 mph 1.1 kmh 1.6 mph2.6 kmh 29.76 in1007.8 mb 0.00 in0.0 mm 0.00 in0.0 mm 0.00 in0.0 mm
11:55 AM 23.2°F-4.9°C 19.9°F-6.7°C 82% Calm Calm 1.6 mph2.6 kmh 29.76 in1007.8 mb 0.00 in0.0 mm 0.00 in0.0 mm 0.00 in0.0 mm
12:00 PM 23.4°F-4.8°C 20.1°F-6.6°C 82% Calm Calm -- 29.76 in1007.8 mb 0.00 in0.0 mm 0.00 in0.0 mm 0.00 in0.0 mm
12:05 PM 23.0°F-5.0°C 19.6°F-6.9°C 81% Calm Calm 1.6 mph2.6 kmh 29.76 in1007.8 mb 0.00 in0.0 mm 0.00 in0.0 mm 0.00 in0.0 mm
12:10 PM 22.8°F-5.1°C 19.6°F-6.9°C 82% Calm Calm -- 29.75 in1007.5 mb 0.00 in0.0 mm 0.00 in0.0 mm 0.00 in0.0 mm
12:15 PM 22.8°F-5.1°C 19.6°F-6.9°C 82% Calm Calm -- 29.76 in1007.8 mb 0.00 in0.0 mm 0.00 in0.0 mm 0.00 in0.0 mm
12:20 PM 22.6°F-5.2°C 19.4°F-7.0°C 82% Calm Calm -- 29.76 in1007.8 mb 0.00 in0.0 mm 0.00 in0.0 mm 0.00 in0.0 mm
12:25 PM 22.6°F-5.2°C 19.4°F-7.0°C 82% 0.7 mph SW1.1 kmh SW 2.2 mph3.5 kmh 29.76 in1007.8 mb 0.00 in0.0 mm 0.00 in0.0 mm 0.00 in0.0 mm
12:30 PM 22.3°F-5.4°C 19.1°F-7.2°C 82% Calm Calm -- 29.77 in1008.1 mb 0.00 in0.0 mm 0.00 in0.0 mm 0.00 in0.0 mm
12:35 PM 21.9°F-5.6°C 18.7°F-7.4°C 82% Calm Calm 0.7 mph1.1 kmh 29.77 in1008.1 mb 0.00 in0.0 mm 0.00 in0.0 mm 0.00 in0.0 mm
12:40 PM 21.9°F-5.6°C 18.7°F-7.4°C 82% Calm Calm 0.7 mph1.1 kmh 29.77 in1008.1 mb 0.00 in0.0 mm 0.00 in0.0 mm 0.00 in0.0 mm
12:45 PM 21.9°F-5.6°C 18.7°F-7.4°C 82% Calm Calm 1.6 mph2.6 kmh 29.77 in1008.1 mb 0.00 in0.0 mm 0.00 in0.0 mm 0.00 in0.0 mm
12:50 PM 22.3°F-5.4°C 19.1°F-7.2°C 82% Calm Calm -- 29.76 in1007.8 mb 0.00 in0.0 mm 0.00 in0.0 mm 0.00 in0.0 mm
12:55 PM 22.6°F-5.2°C 19.4°F-7.0°C 82% Calm Calm 0.7 mph1.1 kmh 29.76 in1007.8 mb 0.00 in0.0 mm 0.00 in0.0 mm 0.00 in0.0 mm
01:00 PM 22.6°F-5.2°C 19.4°F-7.0°C 82% Calm Calm 1.6 mph2.6 kmh 29.76 in1007.8 mb 0.00 in0.0 mm 0.00 in0.0 mm 0.00 in0.0 mm
01:05 PM 22.5°F-5.3°C 19.2°F-7.1°C 82% Calm Calm -- 29.77 in1008.1 mb 0.00 in0.0 mm 0.00 in0.0 mm 0.00 in0.0 mm
01:10 PM 22.6°F-5.2°C 19.4°F-7.0°C 82% Calm Calm -- 29.77 in1008.1 mb 0.00 in0.0 mm 0.00 in0.0 mm 0.00 in0.0 mm
01:15 PM 22.6°F-5.2°C 19.4°F-7.0°C 82% Calm Calm 1.6 mph2.6 kmh 29.77 in1008.1 mb 0.00 in0.0 mm 0.00 in0.0 mm 0.00 in0.0 mm
01:20 PM 22.6°F-5.2°C 19.4°F-7.0°C 82% Calm Calm 2.2 mph3.5 kmh 29.77 in1008.1 mb 0.00 in0.0 mm 0.00 in0.0 mm 0.00 in0.0 mm
01:25 PM 22.8°F-5.1°C 19.6°F-6.9°C 82% 0.7 mph W1.1 kmh W 1.6 mph2.6 kmh 29.76 in1007.8 mb 0.00 in0.0 mm 0.00 in0.0 mm 0.00 in0.0 mm
01:30 PM 22.5°F-5.3°C 19.2°F-7.1°C 82% Calm Calm 1.6 mph2.6 kmh 29.76 in1007.8 mb 0.00 in0.0 mm 0.00 in0.0 mm 0.00 in0.0 mm
01:35 PM 22.1°F-5.5°C 18.7°F-7.4°C 81% Calm Calm 1.6 mph2.6 kmh 29.76 in1007.8 mb 0.00 in0.0 mm 0.00 in0.0 mm 0.00 in0.0 mm
01:40 PM 21.9°F-5.6°C 18.5°F-7.5°C 81% Calm Calm -- 29.77 in1008.1 mb 0.00 in0.0 mm 0.00 in0.0 mm 0.00 in0.0 mm
01:45 PM 21.9°F-5.6°C 18.5°F-7.5°C 81% Calm Calm 0.7 mph1.1 kmh 29.77 in1008.1 mb 0.00 in0.0 mm 0.00 in0.0 mm 0.00 in0.0 mm
01:50 PM 21.7°F-5.7°C 18.3°F-7.6°C 81% Calm Calm -- 29.77 in1008.1 mb 0.00 in0.0 mm 0.00 in0.0 mm 0.00 in0.0 mm
01:55 PM 21.4°F-5.9°C 18.0°F-7.8°C 81% Calm Calm 0.7 mph1.1 kmh 29.77 in1008.1 mb 0.00 in0.0 mm 0.00 in0.0 mm 0.00 in0.0 mm
02:00 PM 21.4°F-5.9°C 18.0°F-7.8°C 81% Calm Calm 0.7 mph1.1 kmh 29.77 in1008.1 mb 0.00 in0.0 mm 0.00 in0.0 mm 0.00 in0.0 mm
02:05 PM 21.4°F-5.9°C 18.0°F-7.8°C 81% Calm Calm 0.7 mph1.1 kmh 29.77 in1008.1 mb 0.00 in0.0 mm 0.00 in0.0 mm 0.00 in0.0 mm
02:10 PM 21.4°F-5.9°C 18.0°F-7.8°C 81% Calm Calm -- 29.78 in1008.5 mb 0.00 in0.0 mm 0.00 in0.0 mm 0.00 in0.0 mm
02:15 PM 21.4°F-5.9°C 18.0°F-7.8°C 81% 1.6 mph 2.6 kmh 3.1 mph5.0 kmh 29.78 in1008.5 mb 0.00 in0.0 mm 0.00 in0.0 mm 0.00 in0.0 mm
02:20 PM 21.2°F-6.0°C 17.8°F-7.9°C 81% Calm Calm 1.6 mph2.6 kmh 29.78 in1008.5 mb 0.00 in0.0 mm 0.00 in0.0 mm 0.00 in0.0 mm
02:25 PM 20.7°F-6.3°C 17.5°F-8.1°C 82% 0.7 mph 1.1 kmh 2.2 mph3.5 kmh 29.78 in1008.5 mb 0.00 in0.0 mm 0.00 in0.0 mm 0.00 in0.0 mm
02:30 PM 20.7°F-6.3°C 17.5°F-8.1°C 82% Calm Calm 1.6 mph2.6 kmh 29.78 in1008.5 mb 0.00 in0.0 mm 0.00 in0.0 mm 0.00 in0.0 mm
02:35 PM 20.5°F-6.4°C 17.3°F-8.2°C 82% 0.7 mph SW1.1 kmh SW 3.1 mph5.0 kmh 29.78 in1008.5 mb 0.00 in0.0 mm 0.00 in0.0 mm 0.00 in0.0 mm
02:40 PM 20.5°F-6.4°C 17.3°F-8.2°C 82% Calm Calm -- 29.78 in1008.5 mb 0.00 in0.0 mm 0.00 in0.0 mm 0.00 in0.0 mm
02:45 PM 20.5°F-6.4°C 17.3°F-8.2°C 82% Calm Calm -- 29.79 in1008.8 mb 0.00 in0.0 mm 0.00 in0.0 mm 0.00 in0.0 mm
02:50 PM 20.3°F-6.5°C 17.1°F-8.3°C 82% Calm Calm -- 29.79 in1008.8 mb 0.00 in0.0 mm 0.00 in0.0 mm 0.00 in0.0 mm
02:55 PM 20.1°F-6.6°C 16.9°F-8.4°C 82% Calm Calm -- 29.79 in1008.8 mb 0.00 in0.0 mm 0.00 in0.0 mm 0.00 in0.0 mm
03:00 PM 19.9°F-6.7°C 16.6°F-8.6°C 81% Calm Calm -- 29.79 in1008.8 mb 0.00 in0.0 mm 0.00 in0.0 mm 0.00 in0.0 mm
03:05 PM 19.9°F-6.7°C 16.6°F-8.6°C 81% Calm Calm 0.7 mph1.1 kmh 29.80 in1009.1 mb 0.00 in0.0 mm 0.00 in0.0 mm 0.00 in0.0 mm
03:10 PM 19.8°F-6.8°C 16.4°F-8.7°C 81% Calm Calm -- 29.80 in1009.1 mb 0.00 in0.0 mm 0.00 in0.0 mm 0.00 in0.0 mm
03:15 PM 19.8°F-6.8°C 16.4°F-8.7°C 81% Calm Calm 1.6 mph2.6 kmh 29.80 in1009.1 mb 0.00 in0.0 mm 0.00 in0.0 mm 0.00 in0.0 mm
03:20 PM 19.8°F-6.8°C 16.4°F-8.7°C 81% 1.6 mph W2.6 kmh W 3.8 mph6.1 kmh 29.81 in1009.5 mb 0.00 in0.0 mm 0.00 in0.0 mm 0.00 in0.0 mm
03:25 PM 19.4°F-7.0°C 16.1°F-8.8°C 81% Calm Calm 2.2 mph3.5 kmh 29.80 in1009.1 mb 0.00 in0.0 mm 0.00 in0.0 mm 0.00 in0.0 mm
03:30 PM 19.0°F-7.2°C 14.9°F-9.5°C 77% 1.6 mph WNW2.6 kmh WNW 3.1 mph5.0 kmh 29.81 in1009.5 mb 0.00 in0.0 mm 0.00 in0.0 mm 0.00 in0.0 mm
03:35 PM 18.9°F-7.3°C 14.5°F-9.7°C 76% Calm Calm 1.6 mph2.6 kmh 29.80 in1009.1 mb 0.00 in0.0 mm 0.00 in0.0 mm 0.00 in0.0 mm
03:40 PM 18.5°F-7.5°C 14.2°F-9.9°C 76% Calm Calm -- 29.81 in1009.5 mb 0.00 in0.0 mm 0.00 in0.0 mm 0.00 in0.0 mm
03:45 PM 18.3°F-7.6°C 14.0°F-10.0°C 76% Calm Calm -- 29.81 in1009.5 mb 0.00 in0.0 mm 0.00 in0.0 mm 0.00 in0.0 mm
03:50 PM 18.1°F-7.7°C 13.8°F-10.1°C 76% Calm Calm -- 29.81 in1009.5 mb 0.00 in0.0 mm 0.00 in0.0 mm 0.00 in0.0 mm
03:55 PM 18.0°F-7.8°C 13.7°F-10.2°C 76% Calm Calm 0.7 mph1.1 kmh 29.82 in1009.8 mb 0.00 in0.0 mm 0.00 in0.0 mm 0.00 in0.0 mm
04:00 PM 18.0°F-7.8°C 13.7°F-10.2°C 76% Calm Calm -- 29.81 in1009.5 mb 0.00 in0.0 mm 0.00 in0.0 mm 0.00 in0.0 mm
04:05 PM 17.8°F-7.9°C 13.5°F-10.3°C 76% Calm Calm 0.7 mph1.1 kmh 29.82 in1009.8 mb 0.00 in0.0 mm 0.00 in0.0 mm 0.00 in0.0 mm
04:10 PM 17.6°F-8.0°C 13.3°F-10.4°C 76% Calm Calm 0.7 mph1.1 kmh 29.82 in1009.8 mb 0.00 in0.0 mm 0.00 in0.0 mm 0.00 in0.0 mm
04:20 PM 17.4°F-8.1°C 13.3°F-10.4°C 77% Calm Calm 1.6 mph2.6 kmh 29.82 in1009.8 mb 0.00 in0.0 mm 0.00 in0.0 mm 0.00 in0.0 mm
04:25 PM 17.1°F-8.3°C 13.0°F-10.6°C 77% Calm Calm -- 29.82 in1009.8 mb 0.00 in0.0 mm 0.00 in0.0 mm 0.00 in0.0 mm
04:30 PM 17.1°F-8.3°C 13.0°F-10.6°C 77% Calm Calm 0.7 mph1.1 kmh 29.82 in1009.8 mb 0.00 in0.0 mm 0.00 in0.0 mm 0.00 in0.0 mm
04:35 PM 17.1°F-8.3°C 13.0°F-10.6°C 77% Calm Calm 3.1 mph5.0 kmh 29.82 in1009.8 mb 0.00 in0.0 mm 0.00 in0.0 mm 0.00 in0.0 mm
04:40 PM 16.7°F-8.5°C 12.6°F-10.8°C 77% Calm Calm 1.6 mph2.6 kmh 29.83 in1010.2 mb 0.00 in0.0 mm 0.00 in0.0 mm 0.00 in0.0 mm
04:45 PM 16.5°F-8.6°C 12.5°F-10.8°C 77% Calm Calm 0.7 mph1.1 kmh 29.83 in1010.2 mb 0.00 in0.0 mm 0.00 in0.0 mm 0.00 in0.0 mm
04:50 PM 16.5°F-8.6°C 12.3°F-10.9°C 76% Calm Calm -- 29.83 in1010.2 mb 0.00 in0.0 mm 0.00 in0.0 mm 0.00 in0.0 mm
04:55 PM 16.3°F-8.7°C 12.1°F-11.1°C 76% Calm Calm 2.2 mph3.5 kmh 29.83 in1010.2 mb 0.00 in0.0 mm 0.00 in0.0 mm 0.00 in0.0 mm
05:00 PM 16.2°F-8.8°C 11.9°F-11.2°C 76% Calm Calm 0.7 mph1.1 kmh 29.82 in1009.8 mb 0.00 in0.0 mm 0.00 in0.0 mm 0.00 in0.0 mm
05:05 PM 16.0°F-8.9°C 11.7°F-11.3°C 76% Calm Calm 0.7 mph1.1 kmh 29.82 in1009.8 mb 0.00 in0.0 mm 0.00 in0.0 mm 0.00 in0.0 mm
05:10 PM 16.0°F-8.9°C 11.7°F-11.3°C 76% Calm Calm -- 29.83 in1010.2 mb 0.00 in0.0 mm 0.00 in0.0 mm 0.00 in0.0 mm
05:15 PM 15.8°F-9.0°C 11.6°F-11.3°C 76% Calm Calm -- 29.83 in1010.2 mb 0.00 in0.0 mm 0.00 in0.0 mm 0.00 in0.0 mm
05:20 PM 15.6°F-9.1°C 11.6°F-11.3°C 77% Calm Calm 0.7 mph1.1 kmh 29.83 in1010.2 mb 0.00 in0.0 mm 0.00 in0.0 mm 0.00 in0.0 mm
05:25 PM 15.6°F-9.1°C 11.6°F-11.3°C 77% Calm Calm -- 29.83 in1010.2 mb 0.00 in0.0 mm 0.00 in0.0 mm 0.00 in0.0 mm
05:30 PM 15.4°F-9.2°C 11.4°F-11.4°C 77% Calm Calm -- 29.83 in1010.2 mb 0.00 in0.0 mm 0.00 in0.0 mm 0.00 in0.0 mm
05:35 PM 15.4°F-9.2°C 11.4°F-11.4°C 77% Calm Calm -- 29.83 in1010.2 mb 0.00 in0.0 mm 0.00 in0.0 mm 0.00 in0.0 mm
05:40 PM 15.3°F-9.3°C 11.3°F-11.5°C 77% Calm Calm -- 29.83 in1010.2 mb 0.00 in0.0 mm 0.00 in0.0 mm 0.00 in0.0 mm
05:45 PM 15.3°F-9.3°C 11.3°F-11.5°C 77% Calm Calm 1.6 mph2.6 kmh 29.83 in1010.2 mb 0.00 in0.0 mm 0.00 in0.0 mm 0.00 in0.0 mm
05:50 PM 15.1°F-9.4°C 11.1°F-11.6°C 77% Calm Calm 0.7 mph1.1 kmh 29.83 in1010.2 mb 0.00 in0.0 mm 0.00 in0.0 mm 0.00 in0.0 mm
05:55 PM 14.9°F-9.5°C 10.9°F-11.7°C 77% Calm Calm 0.7 mph1.1 kmh 29.83 in1010.2 mb 0.00 in0.0 mm 0.00 in0.0 mm 0.00 in0.0 mm
06:00 PM 14.9°F-9.5°C 10.9°F-11.7°C 77% Calm Calm 0.7 mph1.1 kmh 29.83 in1010.2 mb 0.00 in0.0 mm 0.00 in0.0 mm 0.00 in0.0 mm
06:05 PM 14.9°F-9.5°C 10.9°F-11.7°C 77% Calm Calm -- 29.83 in1010.2 mb 0.00 in0.0 mm 0.00 in0.0 mm 0.00 in0.0 mm
06:10 PM 14.9°F-9.5°C 10.9°F-11.7°C 77% Calm Calm 0.7 mph1.1 kmh 29.83 in1010.2 mb 0.00 in0.0 mm 0.00 in0.0 mm 0.00 in0.0 mm
06:15 PM 14.9°F-9.5°C 10.9°F-11.7°C 77% Calm Calm -- 29.83 in1010.2 mb 0.00 in0.0 mm 0.00 in0.0 mm 0.00 in0.0 mm
06:20 PM 14.9°F-9.5°C 10.9°F-11.7°C 77% Calm Calm -- 29.83 in1010.2 mb 0.00 in0.0 mm 0.00 in0.0 mm 0.00 in0.0 mm
06:25 PM 14.9°F-9.5°C 10.9°F-11.7°C 77% Calm Calm -- 29.84 in1010.5 mb 0.00 in0.0 mm 0.00 in0.0 mm 0.00 in0.0 mm
06:30 PM 14.9°F-9.5°C 10.9°F-11.7°C 77% Calm Calm 0.7 mph1.1 kmh 29.84 in1010.5 mb 0.00 in0.0 mm 0.00 in0.0 mm 0.00 in0.0 mm
06:35 PM 14.7°F-9.6°C 10.7°F-11.8°C 77% Calm Calm 0.7 mph1.1 kmh 29.83 in1010.2 mb 0.00 in0.0 mm 0.00 in0.0 mm 0.00 in0.0 mm
06:40 PM 14.7°F-9.6°C 10.7°F-11.8°C 77% Calm Calm -- 29.83 in1010.2 mb 0.00 in0.0 mm 0.00 in0.0 mm 0.00 in0.0 mm
06:45 PM 14.7°F-9.6°C 10.7°F-11.8°C 77% Calm Calm -- 29.83 in1010.2 mb 0.00 in0.0 mm 0.00 in0.0 mm 0.00 in0.0 mm
06:50 PM 14.5°F-9.7°C 10.4°F-12.0°C 76% Calm Calm -- 29.84 in1010.5 mb 0.00 in0.0 mm 0.00 in0.0 mm 0.00 in0.0 mm
06:55 PM 14.5°F-9.7°C 10.4°F-12.0°C 76% Calm Calm 1.6 mph2.6 kmh 29.84 in1010.5 mb 0.00 in0.0 mm 0.00 in0.0 mm 0.00 in0.0 mm
07:00 PM 14.5°F-9.7°C 10.4°F-12.0°C 76% Calm Calm 1.6 mph2.6 kmh 29.84 in1010.5 mb 0.00 in0.0 mm 0.00 in0.0 mm 0.00 in0.0 mm
07:05 PM 14.5°F-9.7°C 10.4°F-12.0°C 76% Calm Calm -- 29.83 in1010.2 mb 0.00 in0.0 mm 0.00 in0.0 mm 0.00 in0.0 mm
07:10 PM 14.4°F-9.8°C 10.2°F-12.1°C 76% Calm Calm -- 29.83 in1010.2 mb 0.00 in0.0 mm 0.00 in0.0 mm 0.00 in0.0 mm
07:15 PM 14.4°F-9.8°C 10.2°F-12.1°C 76% Calm Calm 2.2 mph3.5 kmh 29.84 in1010.5 mb 0.00 in0.0 mm 0.00 in0.0 mm 0.00 in0.0 mm
07:20 PM 14.4°F-9.8°C 10.2°F-12.1°C 76% Calm Calm -- 29.83 in1010.2 mb 0.00 in0.0 mm 0.00 in0.0 mm 0.00 in0.0 mm
07:25 PM 14.2°F-9.9°C 10.0°F-12.2°C 76% Calm Calm 0.7 mph1.1 kmh 29.83 in1010.2 mb 0.00 in0.0 mm 0.00 in0.0 mm 0.00 in0.0 mm
07:30 PM 14.2°F-9.9°C 10.0°F-12.2°C 76% Calm Calm -- 29.83 in1010.2 mb 0.00 in0.0 mm 0.00 in0.0 mm 0.00 in0.0 mm
07:35 PM 14.2°F-9.9°C 10.0°F-12.2°C 76% Calm Calm -- 29.83 in1010.2 mb 0.00 in0.0 mm 0.00 in0.0 mm 0.00 in0.0 mm
07:40 PM 14.0°F-10.0°C 9.8°F-12.3°C 76% Calm Calm 1.6 mph2.6 kmh 29.83 in1010.2 mb 0.00 in0.0 mm 0.00 in0.0 mm 0.00 in0.0 mm
07:45 PM 14.0°F-10.0°C 9.8°F-12.3°C 76% Calm Calm -- 29.83 in1010.2 mb 0.00 in0.0 mm 0.00 in0.0 mm 0.00 in0.0 mm
07:50 PM 14.0°F-10.0°C 9.8°F-12.3°C 76% Calm Calm -- 29.84 in1010.5 mb 0.00 in0.0 mm 0.00 in0.0 mm 0.00 in0.0 mm
07:55 PM 14.0°F-10.0°C 9.8°F-12.3°C 76% Calm Calm -- 29.83 in1010.2 mb 0.00 in0.0 mm 0.00 in0.0 mm 0.00 in0.0 mm
08:00 PM 13.8°F-10.1°C 9.9°F-12.3°C 77% Calm Calm -- 29.83 in1010.2 mb 0.00 in0.0 mm 0.00 in0.0 mm 0.00 in0.0 mm
08:05 PM 13.6°F-10.2°C 9.7°F-12.4°C 77% Calm Calm -- 29.84 in1010.5 mb 0.00 in0.0 mm 0.00 in0.0 mm 0.00 in0.0 mm
08:10 PM 13.6°F-10.2°C 9.7°F-12.4°C 77% Calm Calm -- 29.84 in1010.5 mb 0.00 in0.0 mm 0.00 in0.0 mm 0.00 in0.0 mm
08:15 PM 13.5°F-10.3°C 9.5°F-12.5°C 77% Calm Calm -- 29.85 in1010.8 mb 0.00 in0.0 mm 0.00 in0.0 mm 0.00 in0.0 mm
08:20 PM 13.5°F-10.3°C 9.5°F-12.5°C 77% Calm Calm -- 29.84 in1010.5 mb 0.00 in0.0 mm 0.00 in0.0 mm 0.00 in0.0 mm
08:25 PM 13.5°F-10.3°C 9.5°F-12.5°C 77% Calm Calm 0.7 mph1.1 kmh 29.84 in1010.5 mb 0.00 in0.0 mm 0.00 in0.0 mm 0.00 in0.0 mm
08:30 PM 13.5°F-10.3°C 9.3°F-12.6°C 76% Calm Calm -- 29.84 in1010.5 mb 0.00 in0.0 mm 0.00 in0.0 mm 0.00 in0.0 mm
08:35 PM 13.3°F-10.4°C 9.1°F-12.7°C 76% 1.6 mph NW2.6 kmh NW 3.1 mph5.0 kmh 29.85 in1010.8 mb 0.00 in0.0 mm 0.00 in0.0 mm 0.00 in0.0 mm
08:40 PM 13.3°F-10.4°C 9.1°F-12.7°C 76% Calm Calm -- 29.85 in1010.8 mb 0.00 in0.0 mm 0.00 in0.0 mm 0.00 in0.0 mm
08:45 PM 13.1°F-10.5°C 9.0°F-12.8°C 76% Calm Calm -- 29.85 in1010.8 mb 0.00 in0.0 mm 0.00 in0.0 mm 0.00 in0.0 mm
08:50 PM 13.1°F-10.5°C 9.0°F-12.8°C 76% Calm Calm 1.6 mph2.6 kmh 29.85 in1010.8 mb 0.00 in0.0 mm 0.00 in0.0 mm 0.00 in0.0 mm
08:55 PM 12.9°F-10.6°C 8.8°F-12.9°C 76% Calm Calm -- 29.85 in1010.8 mb 0.00 in0.0 mm 0.00 in0.0 mm 0.00 in0.0 mm
09:00 PM 12.9°F-10.6°C 8.8°F-12.9°C 76% Calm Calm 0.7 mph1.1 kmh 29.85 in1010.8 mb 0.00 in0.0 mm 0.00 in0.0 mm 0.00 in0.0 mm
09:05 PM 12.9°F-10.6°C 8.8°F-12.9°C 76% Calm Calm -- 29.85 in1010.8 mb 0.00 in0.0 mm 0.00 in0.0 mm 0.00 in0.0 mm
09:10 PM 12.7°F-10.7°C 8.6°F-13.0°C 76% Calm Calm 1.6 mph2.6 kmh 29.86 in1011.2 mb 0.00 in0.0 mm 0.00 in0.0 mm 0.00 in0.0 mm
09:15 PM 12.7°F-10.7°C 8.6°F-13.0°C 76% Calm Calm -- 29.85 in1010.8 mb 0.00 in0.0 mm 0.00 in0.0 mm 0.00 in0.0 mm
09:20 PM 12.7°F-10.7°C 8.6°F-13.0°C 76% Calm Calm -- 29.85 in1010.8 mb 0.00 in0.0 mm 0.00 in0.0 mm 0.00 in0.0 mm
09:25 PM 12.7°F-10.7°C 8.6°F-13.0°C 76% Calm Calm -- 29.85 in1010.8 mb 0.00 in0.0 mm 0.00 in0.0 mm 0.00 in0.0 mm
09:30 PM 12.6°F-10.8°C 8.4°F-13.1°C 76% Calm Calm -- 29.86 in1011.2 mb 0.00 in0.0 mm 0.00 in0.0 mm 0.00 in0.0 mm
09:35 PM 12.6°F-10.8°C 8.4°F-13.1°C 76% Calm Calm 1.6 mph2.6 kmh 29.85 in1010.8 mb 0.00 in0.0 mm 0.00 in0.0 mm 0.00 in0.0 mm
09:40 PM 12.4°F-10.9°C 8.3°F-13.2°C 76% Calm Calm -- 29.86 in1011.2 mb 0.00 in0.0 mm 0.00 in0.0 mm 0.00 in0.0 mm
09:45 PM 12.2°F-11.0°C 8.1°F-13.3°C 76% Calm Calm -- 29.85 in1010.8 mb 0.00 in0.0 mm 0.00 in0.0 mm 0.00 in0.0 mm
09:50 PM 12.0°F-11.1°C 7.9°F-13.4°C 76% 0.7 mph SE1.1 kmh SE 1.6 mph2.6 kmh 29.85 in1010.8 mb 0.00 in0.0 mm 0.00 in0.0 mm 0.00 in0.0 mm
09:55 PM 11.7°F-11.3°C 7.6°F-13.6°C 76% Calm Calm -- 29.85 in1010.8 mb 0.00 in0.0 mm 0.00 in0.0 mm 0.00 in0.0 mm
10:00 PM 11.5°F-11.4°C 7.4°F-13.7°C 76% Calm Calm -- 29.85 in1010.8 mb 0.00 in0.0 mm 0.00 in0.0 mm 0.00 in0.0 mm
10:05 PM 11.3°F-11.5°C 7.2°F-13.8°C 76% Calm Calm 0.7 mph1.1 kmh 29.86 in1011.2 mb 0.00 in0.0 mm 0.00 in0.0 mm 0.00 in0.0 mm
10:10 PM 11.1°F-11.6°C 7.0°F-13.9°C 76% Calm Calm 0.7 mph1.1 kmh 29.86 in1011.2 mb 0.00 in0.0 mm 0.00 in0.0 mm 0.00 in0.0 mm
10:15 PM 11.1°F-11.6°C 7.0°F-13.9°C 76% Calm Calm -- 29.85 in1010.8 mb 0.00 in0.0 mm 0.00 in0.0 mm 0.00 in0.0 mm
10:20 PM 11.1°F-11.6°C 7.0°F-13.9°C 76% Calm Calm -- 29.85 in1010.8 mb 0.00 in0.0 mm 0.00 in0.0 mm 0.00 in0.0 mm
10:25 PM 11.1°F-11.6°C 7.0°F-13.9°C 76% Calm Calm 1.6 mph2.6 kmh 29.86 in1011.2 mb 0.00 in0.0 mm 0.00 in0.0 mm 0.00 in0.0 mm
10:30 PM 10.9°F-11.7°C 6.9°F-13.9°C 76% Calm Calm -- 29.86 in1011.2 mb 0.00 in0.0 mm 0.00 in0.0 mm 0.00 in0.0 mm
10:35 PM 10.9°F-11.7°C 6.9°F-13.9°C 76% Calm Calm 1.6 mph2.6 kmh 29.86 in1011.2 mb 0.00 in0.0 mm 0.00 in0.0 mm 0.00 in0.0 mm
10:40 PM 10.9°F-11.7°C 6.7°F-14.1°C 75% Calm Calm 1.6 mph2.6 kmh 29.86 in1011.2 mb 0.00 in0.0 mm 0.00 in0.0 mm 0.00 in0.0 mm
10:45 PM 11.1°F-11.6°C 7.0°F-13.9°C 76% Calm Calm -- 29.86 in1011.2 mb 0.00 in0.0 mm 0.00 in0.0 mm 0.00 in0.0 mm
10:50 PM 10.9°F-11.7°C 6.7°F-14.1°C 75% Calm Calm -- 29.86 in1011.2 mb 0.00 in0.0 mm 0.00 in0.0 mm 0.00 in0.0 mm
10:55 PM 10.6°F-11.9°C 6.3°F-14.3°C 75% Calm Calm -- 29.86 in1011.2 mb 0.00 in0.0 mm 0.00 in0.0 mm 0.00 in0.0 mm
11:00 PM 10.6°F-11.9°C 6.3°F-14.3°C 75% Calm Calm -- 29.85 in1010.8 mb 0.00 in0.0 mm 0.00 in0.0 mm 0.00 in0.0 mm
11:05 PM 10.6°F-11.9°C 6.3°F-14.3°C 75% Calm Calm -- 29.86 in1011.2 mb 0.00 in0.0 mm 0.00 in0.0 mm 0.00 in0.0 mm
11:10 PM 10.4°F-12.0°C 6.2°F-14.3°C 75% Calm Calm -- 29.87 in1011.5 mb 0.00 in0.0 mm 0.00 in0.0 mm 0.00 in0.0 mm
11:15 PM 10.4°F-12.0°C 6.2°F-14.3°C 75% Calm Calm -- 29.86 in1011.2 mb 0.00 in0.0 mm 0.00 in0.0 mm 0.00 in0.0 mm
11:20 PM 10.2°F-12.1°C 5.2°F-14.9°C 71% Calm Calm -- 29.87 in1011.5 mb 0.00 in0.0 mm 0.00 in0.0 mm 0.00 in0.0 mm
11:25 PM 10.2°F-12.1°C 5.2°F-14.9°C 71% Calm Calm -- 29.87 in1011.5 mb 0.00 in0.0 mm 0.00 in0.0 mm 0.00 in0.0 mm
11:30 PM 10.4°F-12.0°C 6.2°F-14.3°C 75% Calm Calm -- 29.86 in1011.2 mb 0.00 in0.0 mm 0.00 in0.0 mm 0.00 in0.0 mm
11:35 PM 10.4°F-12.0°C 6.2°F-14.3°C 75% Calm Calm -- 29.87 in1011.5 mb 0.00 in0.0 mm 0.00 in0.0 mm 0.00 in0.0 mm
11:40 PM 10.4°F-12.0°C 6.2°F-14.3°C 75% Calm Calm 0.7 mph1.1 kmh 29.87 in1011.5 mb 0.00 in0.0 mm 0.00 in0.0 mm 0.00 in0.0 mm
11:45 PM 10.4°F-12.0°C 6.2°F-14.3°C 75% Calm Calm -- 29.87 in1011.5 mb 0.00 in0.0 mm 0.00 in0.0 mm 0.00 in0.0 mm
11:50 PM 10.2°F-12.1°C 5.2°F-14.9°C 71% Calm Calm -- 29.87 in1011.5 mb 0.00 in0.0 mm 0.00 in0.0 mm 0.00 in0.0 mm
11:55 PM 10.0°F-12.2°C 5.0°F-15.0°C 71% Calm Calm -- 29.87 in1011.5 mb 0.00 in0.0 mm 0.00 in0.0 mm 0.00 in0.0 mm